map of WHT home
WHT - Airport
Location
City:  Wharton, Texas, United States
Name:Wharton Regional
ICAO:KARM
IATA:WHT
FAA LID:ARM

Details
Type:Airport (Airfield)
Use:Public/Civil
Latitude:2915'15"N (29.254278)
Longitude:9609'16"W (-96.154388)
Datum:WGS 1984
Elevation:100 ft (30 m)
Variation:2.86E (WMM2015v2 magnetic declination)
-0.10 annual change
Runways:1
Longest:5004 × 75 ft (1525 × 23 m), paved

Time
Time Zone:UTC-6 (DST-5)
Local Time:

Weather
METAR:KARM 041415Z AUTO 00000KT M1/4SM FG OVC002 19/19 A2994 RMK AO2 T01880185

Related Locations
Nearby:
Farthest:RRG: 11000 mi / 17704 km
Plaine Corail [Sir Gatan Duval Airport (Plaine Corail Airport)], Rodrigues Island, MU

Find:

   beyond  
but within

Other Information
Maps:
NOTAMs:
Links:
Sources:

  
  • flag of United States
  • flag of Texas
  

Sectional Chart

Flight Planning
at skyvector.com

Satellite Image

Google Maps Satellite view

 

Copyright © 2004-2019 Karl L. Swartz. All rights reserved.
The Great Circle Mapper name and logo are trademarks of the Great Circle Mapper.
All other trademarks mentioned herein belong to their respective owners.
Please see credits for attibutions and further copyright information.

  Follow gcmap on Facebook Follow gcmap on Twitter GCmap on LinkedIn

hCard Microformat

Geo Microformat